createdAt,value
2018-09-14T00:02:24.095Z,3.57
2018-09-14T00:04:52.572Z,4.47
2018-09-14T00:07:21.059Z,4.00
2018-09-14T00:09:49.525Z,3.40
2018-09-14T00:12:17.966Z,2.97
2018-09-14T00:14:46.433Z,3.83
2018-09-14T00:17:14.864Z,3.40
2018-09-14T00:19:43.332Z,4.27
2018-09-14T00:22:11.827Z,2.67
2018-09-14T00:24:40.241Z,2.90
2018-09-14T00:27:08.655Z,2.57
2018-09-14T00:29:37.045Z,2.83
2018-09-14T00:32:05.439Z,2.60
2018-09-14T00:34:33.845Z,3.27
2018-09-14T00:37:02.367Z,2.57
2018-09-14T00:39:30.762Z,4.47
2018-09-14T00:41:59.186Z,4.13
2018-09-14T00:44:27.600Z,2.67
2018-09-14T00:46:56.025Z,5.17
2018-09-14T00:49:24.392Z,3.43
2018-09-14T00:51:52.838Z,3.83
2018-09-14T00:54:21.237Z,4.70
2018-09-14T00:56:49.655Z,6.87
2018-09-14T00:59:18.050Z,6.37
2018-09-14T01:01:46.541Z,5.13
2018-09-14T01:04:14.912Z,6.63
2018-09-14T01:06:43.299Z,5.50
2018-09-14T01:09:17.105Z,5.03
2018-09-14T01:11:45.586Z,5.07
2018-09-14T01:14:14.073Z,6.30
2018-09-14T01:16:42.748Z,4.97
2018-09-14T01:19:11.161Z,5.47
2018-09-14T01:21:39.506Z,5.63
2018-09-14T01:24:08.041Z,5.53
2018-09-14T01:26:36.554Z,5.83
2018-09-14T01:29:05.061Z,5.33
2018-09-14T01:31:33.484Z,8.00
2018-09-14T01:34:01.866Z,6.20
2018-09-14T01:36:30.256Z,7.23
2018-09-14T01:38:58.681Z,6.43
2018-09-14T01:41:27.112Z,5.90
2018-09-14T01:43:55.529Z,5.53
2018-09-14T01:46:23.940Z,5.63
2018-09-14T01:48:52.436Z,8.07
2018-09-14T01:51:20.811Z,9.70
2018-09-14T01:53:49.221Z,6.33
2018-09-14T01:56:17.625Z,6.07
2018-09-14T01:58:46.064Z,7.47
2018-09-14T02:01:14.474Z,9.73
2018-09-14T02:03:43.866Z,7.43
2018-09-14T02:06:12.253Z,8.83
2018-09-14T02:08:40.703Z,12.87
2018-09-14T02:11:09.085Z,10.30
2018-09-14T02:13:37.491Z,10.00
2018-09-14T02:16:05.844Z,8.27
2018-09-14T02:18:34.295Z,11.37
2018-09-14T02:21:02.861Z,9.43
2018-09-14T02:23:31.360Z,11.83
2018-09-14T02:26:01.258Z,9.27
2018-09-14T02:28:29.667Z,15.53
2018-09-14T02:30:58.095Z,10.67
2018-09-14T02:33:26.632Z,9.60
2018-09-14T02:35:55.106Z,10.97
2018-09-14T02:38:23.570Z,8.90
2018-09-14T02:40:52.018Z,10.30
2018-09-14T02:43:20.405Z,10.93
2018-09-14T02:45:49.058Z,9.90
2018-09-14T02:48:17.494Z,14.47
2018-09-14T02:50:45.897Z,9.00
2018-09-14T02:53:14.811Z,12.30
2018-09-14T02:55:43.261Z,14.40
2018-09-14T02:58:11.752Z,14.17
2018-09-14T03:00:40.179Z,16.83
2018-09-14T03:03:08.574Z,16.57
2018-09-14T03:05:36.965Z,12.30
2018-09-14T03:08:05.348Z,9.50
2018-09-14T03:10:33.700Z,10.83
2018-09-14T03:13:02.107Z,8.40
2018-09-14T03:15:30.505Z,12.63
2018-09-14T03:17:58.953Z,9.33
2018-09-14T03:20:27.369Z,10.33
2018-09-14T03:22:55.749Z,9.67
2018-09-14T03:25:24.181Z,11.73
2018-09-14T03:27:52.570Z,12.33
2018-09-14T03:30:21.060Z,11.43
2018-09-14T03:32:49.515Z,15.00
2018-09-14T03:35:18.021Z,13.57
2018-09-14T03:37:46.520Z,15.20
2018-09-14T03:40:14.957Z,13.43
2018-09-14T03:42:43.363Z,18.53
2018-09-14T03:45:11.824Z,13.40
2018-09-14T03:47:40.202Z,13.07
2018-09-14T03:50:08.618Z,13.40
2018-09-14T03:52:37.120Z,14.80
2018-09-14T03:55:05.589Z,12.00
2018-09-14T03:57:33.999Z,10.03
2018-09-14T04:00:02.459Z,12.87
2018-09-14T04:02:30.940Z,10.73
2018-09-14T04:04:59.410Z,10.10
2018-09-14T04:07:27.815Z,14.13
2018-09-14T04:09:56.207Z,12.20
2018-09-14T04:12:24.566Z,9.60
2018-09-14T04:14:52.972Z,15.70
2018-09-14T04:17:21.333Z,13.70
2018-09-14T04:19:49.867Z,11.67
2018-09-14T04:22:18.292Z,9.07
2018-09-14T04:24:46.659Z,10.20
2018-09-14T04:27:15.076Z,10.00
2018-09-14T04:29:43.491Z,11.93
2018-09-14T04:32:11.871Z,9.43
2018-09-14T04:34:40.399Z,5.90
2018-09-14T04:37:08.975Z,7.33
2018-09-14T04:39:37.405Z,8.97
2018-09-14T04:42:05.868Z,7.07
2018-09-14T04:44:34.296Z,7.87
2018-09-14T04:47:02.832Z,6.50
2018-09-14T04:49:31.204Z,7.47
2018-09-14T04:51:59.622Z,7.93
2018-09-14T04:54:28.043Z,5.33
2018-09-14T04:56:56.525Z,5.40
2018-09-14T04:59:25.153Z,7.53
2018-09-14T05:01:53.603Z,7.20
2018-09-14T05:04:22.076Z,9.60
2018-09-14T05:06:50.541Z,4.70
2018-09-14T05:09:18.959Z,7.33
2018-09-14T05:11:47.337Z,4.87
2018-09-14T05:14:15.827Z,5.60
2018-09-14T05:16:44.283Z,5.83
2018-09-14T05:19:12.708Z,5.23
2018-09-14T05:21:41.316Z,4.60
2018-09-14T05:24:09.755Z,6.57
2018-09-14T05:26:38.212Z,7.13
2018-09-14T05:29:06.609Z,6.10
2018-09-14T05:31:35.040Z,7.30
2018-09-14T05:34:03.404Z,6.20
2018-09-14T05:36:31.824Z,4.20
2018-09-14T05:39:00.224Z,8.53
2018-09-14T05:41:28.692Z,5.03
2018-09-14T05:43:57.120Z,5.07
2018-09-14T05:46:25.549Z,5.77
2018-09-14T05:48:54.256Z,5.10
2018-09-14T05:51:22.689Z,3.90
2018-09-14T05:53:51.177Z,4.63
2018-09-14T05:56:19.654Z,5.00
2018-09-14T05:58:48.217Z,6.00
2018-09-14T06:01:16.683Z,4.50
2018-09-14T06:03:45.061Z,5.47
2018-09-14T06:06:13.539Z,3.53
2018-09-14T06:08:42.096Z,7.20
2018-09-14T06:11:10.514Z,5.23
2018-09-14T06:13:39.004Z,3.43
2018-09-14T06:16:07.505Z,5.60
2018-09-14T06:18:35.944Z,3.83
2018-09-14T06:21:04.366Z,6.80
2018-09-14T06:23:32.843Z,3.73
2018-09-14T06:26:01.297Z,6.60
2018-09-14T06:28:29.749Z,4.10
2018-09-14T06:30:58.249Z,5.27
2018-09-14T06:33:26.682Z,3.83
2018-09-14T06:35:55.148Z,2.60
2018-09-14T06:38:23.632Z,3.87
2018-09-14T06:40:52.203Z,4.07
2018-09-14T06:43:20.635Z,4.50
2018-09-14T06:45:49.030Z,4.23
2018-09-14T06:48:17.431Z,7.73
2018-09-14T06:50:45.867Z,3.73
2018-09-14T06:53:15.551Z,5.80
2018-09-14T06:55:44.083Z,6.60
2018-09-14T06:58:12.511Z,8.00
2018-09-14T07:00:40.998Z,7.23
2018-09-14T07:03:09.526Z,6.30
2018-09-14T07:05:37.988Z,6.80
2018-09-14T07:08:06.442Z,5.17
2018-09-14T07:10:34.946Z,5.23
2018-09-14T07:13:03.618Z,4.77
2018-09-14T07:15:32.109Z,3.50
2018-09-14T07:18:00.507Z,6.43
2018-09-14T07:20:28.958Z,5.17
2018-09-14T07:22:57.386Z,6.20
2018-09-14T07:25:25.792Z,6.50
2018-09-14T07:27:54.289Z,9.23
2018-09-14T07:30:22.796Z,6.90
2018-09-14T07:32:51.186Z,3.50
2018-09-14T07:35:20.371Z,2.77
2018-09-14T07:37:48.833Z,5.60
2018-09-14T07:40:17.352Z,7.43
2018-09-14T07:42:45.867Z,3.73
2018-09-14T07:45:14.309Z,2.70
2018-09-14T07:47:42.721Z,3.17
2018-09-14T07:50:11.197Z,10.50
2018-09-14T07:52:39.604Z,13.60
2018-09-14T07:55:08.033Z,5.63
2018-09-14T07:57:36.578Z,5.50
2018-09-14T08:00:05.180Z,6.13
2018-09-14T08:02:33.710Z,6.77
2018-09-14T08:05:02.188Z,3.57
2018-09-14T08:07:30.655Z,5.80
2018-09-14T08:09:59.132Z,9.70
2018-09-14T08:12:27.610Z,5.53
2018-09-14T08:14:56.048Z,6.27
2018-09-14T08:17:24.516Z,5.67
2018-09-14T08:19:52.922Z,11.70
2018-09-14T08:22:21.419Z,5.07
2018-09-14T08:24:49.849Z,3.70
2018-09-14T08:27:18.839Z,4.67
2018-09-14T08:29:47.508Z,3.57
2018-09-14T08:32:16.071Z,3.03
2018-09-14T08:34:44.517Z,5.67
2018-09-14T08:37:12.974Z,2.67
2018-09-14T08:39:41.468Z,5.37
2018-09-14T08:42:10.473Z,5.55
2018-09-14T08:44:39.427Z,3.87
2018-09-14T08:47:07.916Z,5.20
2018-09-14T08:49:36.331Z,3.75
2018-09-14T08:52:04.830Z,5.17
2018-09-14T08:54:33.315Z,4.10
2018-09-14T08:57:01.800Z,5.20
2018-09-14T08:59:30.276Z,5.42
2018-09-14T09:01:58.742Z,5.97
2018-09-14T09:04:27.249Z,8.70
2018-09-14T09:06:55.699Z,4.37
2018-09-14T09:09:24.212Z,7.37
2018-09-14T09:11:52.757Z,10.03
2018-09-14T09:14:21.208Z,8.70
2018-09-14T09:16:49.669Z,12.37
2018-09-14T09:19:18.344Z,5.60
2018-09-14T09:21:46.817Z,4.10
2018-09-14T09:24:15.269Z,5.80
2018-09-14T09:26:43.720Z,5.33
2018-09-14T09:29:12.186Z,5.90
2018-09-14T09:31:40.626Z,7.12
2018-09-14T09:34:09.024Z,8.40
2018-09-14T09:36:37.451Z,3.35
2018-09-14T09:39:09.270Z,6.50
2018-09-14T09:41:37.917Z,2.92
2018-09-14T09:44:06.580Z,3.72
2018-09-14T09:46:34.928Z,8.03
2018-09-14T09:49:03.383Z,5.65
2018-09-14T09:51:31.870Z,2.08
2018-09-14T09:54:00.295Z,4.25
2018-09-14T09:56:28.763Z,7.28
2018-09-14T09:58:57.254Z,10.75
2018-09-14T10:01:33.874Z,6.28
2018-09-14T10:04:08.266Z,5.50
2018-09-14T10:06:36.665Z,4.28
2018-09-14T10:09:08.004Z,7.00
2018-09-14T10:11:36.506Z,7.97
2018-09-14T10:14:05.428Z,10.25
2018-09-14T10:16:33.836Z,7.83
2018-09-14T10:19:02.260Z,4.37
2018-09-14T10:21:30.652Z,8.13
2018-09-14T10:23:59.081Z,5.12
2018-09-14T10:26:27.539Z,3.42
2018-09-14T10:28:55.985Z,5.28
2018-09-14T10:31:24.356Z,6.10
2018-09-14T10:33:52.785Z,5.87
2018-09-14T10:36:21.163Z,7.03
2018-09-14T10:38:49.597Z,4.95
2018-09-14T10:41:17.996Z,3.25
2018-09-14T10:43:46.675Z,8.90
2018-09-14T10:46:15.025Z,8.50
2018-09-14T10:48:43.566Z,5.67
2018-09-14T10:51:11.959Z,5.78
2018-09-14T10:53:40.419Z,9.58
2018-09-14T10:56:08.871Z,6.70
2018-09-14T10:58:42.322Z,2.85
2018-09-14T11:01:12.629Z,6.70
2018-09-14T11:03:41.064Z,6.58
2018-09-14T11:06:09.439Z,6.37
2018-09-14T11:08:37.860Z,4.58
2018-09-14T11:11:06.542Z,8.70
2018-09-14T11:13:35.019Z,4.05
2018-09-14T11:16:03.398Z,3.42
2018-09-14T11:18:31.843Z,4.70
2018-09-14T11:21:00.305Z,5.67
2018-09-14T11:23:28.742Z,8.15
2018-09-14T11:25:57.222Z,2.87
2018-09-14T11:28:25.701Z,3.02
2018-09-14T11:30:54.082Z,4.70
2018-09-14T11:33:22.567Z,3.52
2018-09-14T11:35:51.008Z,9.08
2018-09-14T11:38:19.431Z,5.22
2018-09-14T11:40:47.833Z,4.10
2018-09-14T11:43:16.179Z,4.97
2018-09-14T11:45:44.777Z,7.12
2018-09-14T11:48:13.165Z,4.17
2018-09-14T11:50:41.844Z,3.55
2018-09-14T11:53:10.236Z,3.30
2018-09-14T11:55:38.823Z,3.10
2018-09-14T11:58:07.253Z,3.30
2018-09-14T12:00:35.778Z,3.62
2018-09-14T12:03:04.181Z,1.85
2018-09-14T12:05:32.691Z,2.87
2018-09-14T12:08:01.098Z,6.92
2018-09-14T12:10:29.555Z,7.55
2018-09-14T12:12:57.975Z,8.25
2018-09-14T12:15:26.385Z,7.90
2018-09-14T12:17:54.821Z,5.08
2018-09-14T12:20:23.361Z,3.70
2018-09-14T12:22:51.745Z,3.33
2018-09-14T12:25:26.815Z,3.87
2018-09-14T12:27:55.229Z,2.83
2018-09-14T12:30:23.907Z,4.25
2018-09-14T12:32:52.382Z,5.25
2018-09-14T12:35:20.836Z,4.33
2018-09-14T12:37:49.264Z,4.08
2018-09-14T12:40:17.800Z,5.72
2018-09-14T12:42:46.210Z,3.33
2018-09-14T12:45:14.721Z,1.77
2018-09-14T12:47:43.560Z,4.53
2018-09-14T12:50:11.994Z,2.00
2018-09-14T12:52:40.442Z,6.47
2018-09-14T12:55:08.877Z,5.30
2018-09-14T12:57:37.437Z,5.37
2018-09-14T13:00:05.980Z,5.17
2018-09-14T13:02:34.342Z,2.15
2018-09-14T13:05:02.775Z,6.85
2018-09-14T13:07:31.223Z,5.05
2018-09-14T13:09:59.747Z,3.72
2018-09-14T13:12:28.175Z,4.22
2018-09-14T13:14:56.637Z,9.05
2018-09-14T13:17:25.020Z,2.47
2018-09-14T13:19:53.463Z,3.40
2018-09-14T13:22:21.871Z,4.83
2018-09-14T13:24:50.384Z,4.97
2018-09-14T13:27:18.834Z,2.65
2018-09-14T13:29:48.313Z,2.52
2018-09-14T13:32:16.759Z,3.52
2018-09-14T13:34:45.239Z,4.55
2018-09-14T13:37:13.626Z,1.85
2018-09-14T13:39:42.019Z,4.12
2018-09-14T13:42:10.651Z,2.50
2018-09-14T13:44:39.045Z,2.75
2018-09-14T13:47:07.545Z,0.60
2018-09-14T13:49:35.984Z,3.50
2018-09-14T13:52:04.488Z,5.75
2018-09-14T13:54:32.851Z,2.12
2018-09-14T13:57:01.286Z,6.12
2018-09-14T13:59:29.729Z,4.47
2018-09-14T14:01:58.135Z,3.75
2018-09-14T14:04:26.635Z,6.78
2018-09-14T14:06:55.154Z,4.10
2018-09-14T14:09:23.580Z,4.47
2018-09-14T14:11:52.038Z,3.33
2018-09-14T14:14:20.448Z,3.75
2018-09-14T14:16:48.886Z,2.67
2018-09-14T14:19:17.366Z,3.15
2018-09-14T14:21:45.862Z,3.58
2018-09-14T14:24:14.257Z,2.98
2018-09-14T14:26:42.669Z,2.47
2018-09-14T14:29:11.059Z,2.60
2018-09-14T14:31:39.607Z,2.00
2018-09-14T14:34:08.077Z,5.95
2018-09-14T14:36:36.526Z,5.00
2018-09-14T14:39:06.710Z,4.85
2018-09-14T14:41:35.171Z,3.50
2018-09-14T14:44:03.571Z,5.87
2018-09-14T14:46:31.972Z,3.90
2018-09-14T14:49:00.368Z,3.83
2018-09-14T14:51:28.771Z,2.27
2018-09-14T14:53:57.160Z,2.62
2018-09-14T14:56:25.610Z,5.12
2018-09-14T14:58:54.022Z,2.05
2018-09-14T15:01:22.568Z,1.40
2018-09-14T15:03:50.924Z,2.12
2018-09-14T15:06:19.398Z,1.95
2018-09-14T15:08:47.757Z,4.97
2018-09-14T15:11:16.151Z,3.77
2018-09-14T15:13:44.578Z,1.15
2018-09-14T15:16:12.961Z,1.12
2018-09-14T15:18:41.349Z,3.27
2018-09-14T15:21:09.724Z,3.27
2018-09-14T15:23:38.260Z,5.05
2018-09-14T15:26:07.496Z,2.42
2018-09-14T15:28:35.965Z,2.00
2018-09-14T15:31:04.348Z,0.65
2018-09-14T15:33:32.745Z,3.12
2018-09-14T15:36:01.179Z,1.27
2018-09-14T15:38:29.572Z,5.30
2018-09-14T15:40:58.038Z,2.37
2018-09-14T15:43:26.431Z,3.25
2018-09-14T15:45:54.796Z,4.10
2018-09-14T15:48:23.354Z,2.35
2018-09-14T15:50:51.762Z,3.02
2018-09-14T15:53:20.199Z,2.67
2018-09-14T15:55:48.576Z,1.65
2018-09-14T15:58:17.042Z,1.47
2018-09-14T16:00:45.472Z,3.80
2018-09-14T16:03:13.879Z,4.42
2018-09-14T16:05:42.301Z,2.40
2018-09-14T16:08:10.762Z,4.83
2018-09-14T16:10:39.285Z,1.35
2018-09-14T16:13:07.764Z,1.55
2018-09-14T16:15:36.168Z,1.47
2018-09-14T16:18:04.630Z,2.10
2018-09-14T16:20:33.024Z,2.37
2018-09-14T16:23:01.434Z,0.78
2018-09-14T16:25:29.885Z,1.30
2018-09-14T16:27:58.723Z,4.40
2018-09-14T16:30:27.393Z,4.42
2018-09-14T16:32:56.078Z,5.05
2018-09-14T16:35:24.590Z,1.25
2018-09-14T16:37:53.191Z,3.22
2018-09-14T16:40:21.733Z,4.17
2018-09-14T16:42:50.476Z,8.43
2018-09-14T16:45:18.974Z,2.55
2018-09-14T16:47:47.385Z,3.00
2018-09-14T16:50:15.806Z,1.52
2018-09-14T16:52:44.176Z,1.77
2018-09-14T16:55:12.547Z,3.45
2018-09-14T16:57:41.130Z,4.00
2018-09-14T17:00:09.748Z,4.53
2018-09-14T17:02:38.136Z,2.27
2018-09-14T17:05:06.555Z,1.72
2018-09-14T17:07:34.946Z,2.40
2018-09-14T17:10:03.325Z,5.80
2018-09-14T17:12:31.690Z,2.67
2018-09-14T17:15:00.099Z,1.65
2018-09-14T17:17:28.510Z,1.80
2018-09-14T17:19:56.903Z,2.17
2018-09-14T17:22:25.365Z,3.75
2018-09-14T17:24:53.797Z,2.22
2018-09-14T17:27:22.199Z,1.40
2018-09-14T17:29:50.588Z,3.75
2018-09-14T17:32:19.083Z,2.62
2018-09-14T17:34:47.463Z,0.70
2018-09-14T17:37:15.836Z,3.15
2018-09-14T17:39:44.263Z,2.15
2018-09-14T17:42:12.719Z,3.22
2018-09-14T17:44:41.253Z,4.50
2018-09-14T17:47:09.580Z,2.92
2018-09-14T17:49:38.104Z,5.15
2018-09-14T17:52:06.582Z,4.03
2018-09-14T17:54:35.004Z,2.00
2018-09-14T17:57:03.411Z,1.27
2018-09-14T17:59:31.931Z,1.90
2018-09-14T18:02:00.383Z,1.32
2018-09-14T18:04:28.864Z,1.57
2018-09-14T18:06:57.239Z,4.03
2018-09-14T18:09:25.650Z,2.58
2018-09-14T18:11:54.014Z,3.42
2018-09-14T18:14:22.402Z,3.40
2018-09-14T18:16:50.786Z,2.98
2018-09-14T18:19:19.222Z,3.30
2018-09-14T18:21:47.600Z,3.60
2018-09-14T18:24:16.047Z,4.70
2018-09-14T18:26:44.380Z,8.55
2018-09-14T18:29:12.779Z,2.60
2018-09-14T18:31:41.313Z,4.10
2018-09-14T18:34:10.225Z,3.72
2018-09-14T18:36:39.127Z,2.65
2018-09-14T18:39:09.279Z,6.33
2018-09-14T18:41:37.828Z,3.60
2018-09-14T18:44:06.694Z,3.95
2018-09-14T18:46:35.908Z,5.30
2018-09-14T18:49:04.863Z,2.73
2018-09-14T18:51:33.813Z,4.62
2018-09-14T18:54:02.980Z,5.05
2018-09-14T18:56:31.762Z,8.38
2018-09-14T18:59:00.206Z,6.60
2018-09-14T19:01:28.661Z,12.07
2018-09-14T19:03:57.133Z,9.55
2018-09-14T19:06:25.633Z,7.47
2018-09-14T19:08:54.006Z,6.75
2018-09-14T19:11:22.709Z,4.30
2018-09-14T19:13:51.277Z,3.30
2018-09-14T19:16:19.814Z,5.53
2018-09-14T19:18:48.234Z,4.72
2018-09-14T19:21:16.767Z,4.23
2018-09-14T19:23:45.185Z,5.47
2018-09-14T19:26:13.518Z,4.47
2018-09-14T19:28:41.959Z,2.67
2018-09-14T19:31:10.364Z,8.13
2018-09-14T19:33:38.898Z,14.03
2018-09-14T19:36:07.366Z,6.27
2018-09-14T19:38:36.271Z,9.93
2018-09-14T19:41:04.708Z,4.67
2018-09-14T19:43:33.089Z,5.92
2018-09-14T19:46:01.454Z,7.80
2018-09-14T19:48:29.875Z,6.17
2018-09-14T19:50:58.361Z,5.72
2018-09-14T19:53:26.721Z,4.73
2018-09-14T19:55:55.133Z,5.17
2018-09-14T19:58:23.569Z,6.37
2018-09-14T20:00:51.995Z,3.00
2018-09-14T20:03:20.419Z,3.87
2018-09-14T20:05:48.860Z,5.43
2018-09-14T20:08:17.284Z,4.67
2018-09-14T20:10:45.715Z,4.60
2018-09-14T20:13:15.275Z,4.40
2018-09-14T20:15:43.682Z,6.17
2018-09-14T20:18:12.079Z,2.90
2018-09-14T20:20:40.484Z,4.73
2018-09-14T20:23:08.883Z,14.03
2018-09-14T20:25:37.287Z,4.93
2018-09-14T20:28:05.734Z,3.30
2018-09-14T20:30:34.201Z,4.40
2018-09-14T20:33:02.555Z,4.67
2018-09-14T20:35:30.965Z,2.53
2018-09-14T20:37:59.351Z,3.13
2018-09-14T20:40:27.775Z,3.37
2018-09-14T20:42:56.178Z,3.47
2018-09-14T20:45:24.665Z,7.83
2018-09-14T20:47:53.015Z,2.90
2018-09-14T20:50:21.381Z,3.23
2018-09-14T20:52:49.759Z,4.27
2018-09-14T20:55:18.175Z,9.33
2018-09-14T20:57:46.582Z,6.27
2018-09-14T21:00:17.899Z,4.70
2018-09-14T21:02:46.982Z,6.43
2018-09-14T21:05:15.377Z,4.30
2018-09-14T21:07:43.751Z,5.50
2018-09-14T21:10:12.206Z,4.33
2018-09-14T21:12:40.736Z,2.83
2018-09-14T21:15:09.148Z,9.70
2018-09-14T21:17:37.638Z,3.83
2018-09-14T21:20:06.258Z,3.13
2018-09-14T21:22:35.346Z,3.30
2018-09-14T21:25:03.777Z,6.40
2018-09-14T21:27:32.225Z,3.20
2018-09-14T21:30:00.618Z,3.90
2018-09-14T21:32:29.018Z,3.10
2018-09-14T21:34:57.468Z,3.17
2018-09-14T21:37:25.888Z,4.20
2018-09-14T21:39:54.270Z,2.97
2018-09-14T21:42:22.651Z,6.03
2018-09-14T21:44:51.015Z,8.50
2018-09-14T21:47:19.463Z,3.63
2018-09-14T21:49:47.860Z,5.37
2018-09-14T21:52:16.258Z,2.87
2018-09-14T21:54:44.812Z,2.50
2018-09-14T21:57:13.219Z,2.83
2018-09-14T21:59:41.646Z,8.77
2018-09-14T22:02:10.113Z,11.00
2018-09-14T22:04:39.550Z,4.37
2018-09-14T22:07:08.346Z,2.63
2018-09-14T22:09:36.724Z,2.70
2018-09-14T22:12:05.157Z,2.87
2018-09-14T22:14:33.549Z,4.50
2018-09-14T22:17:01.999Z,2.90
2018-09-14T22:19:30.459Z,3.17
2018-09-14T22:21:58.920Z,2.43
2018-09-14T22:24:27.267Z,2.67
2018-09-14T22:26:55.685Z,2.53
2018-09-14T22:29:24.049Z,2.33
2018-09-14T22:31:52.439Z,4.50
2018-09-14T22:34:20.849Z,2.87
2018-09-14T22:36:49.226Z,2.90
2018-09-14T22:39:17.682Z,2.90
2018-09-14T22:41:46.079Z,3.67
2018-09-14T22:44:14.519Z,3.73
2018-09-14T22:46:42.984Z,2.90
2018-09-14T22:49:11.399Z,2.43
2018-09-14T22:51:39.813Z,2.20
2018-09-14T22:54:08.196Z,2.40
2018-09-14T22:56:36.622Z,2.40
2018-09-14T22:59:04.971Z,2.57
2018-09-14T23:01:33.357Z,2.40
2018-09-14T23:04:01.783Z,3.47
2018-09-14T23:06:30.230Z,3.00
2018-09-14T23:08:58.583Z,3.20
2018-09-14T23:11:26.965Z,4.03
2018-09-14T23:13:55.398Z,6.17
2018-09-14T23:16:23.844Z,3.37
2018-09-14T23:18:52.360Z,3.47
2018-09-14T23:21:20.743Z,3.33
2018-09-14T23:23:49.299Z,2.77
2018-09-14T23:26:20.167Z,2.77
2018-09-14T23:28:48.620Z,3.27
2018-09-14T23:31:16.996Z,2.43
2018-09-14T23:33:45.352Z,2.10
2018-09-14T23:36:13.710Z,2.87
2018-09-14T23:38:42.064Z,3.23
2018-09-14T23:41:10.406Z,2.57
2018-09-14T23:43:38.730Z,2.57
2018-09-14T23:46:07.136Z,2.23
2018-09-14T23:48:35.508Z,3.03
2018-09-14T23:51:03.888Z,3.07
2018-09-14T23:53:32.245Z,2.13
2018-09-14T23:56:00.618Z,4.33
2018-09-14T23:58:28.975Z,4.13
